Millville Municipal Airport
KMIV : rendu visible

Aérodrome :











RETROUVEZ-NOUS SUR...

 
LOGIN :

S'inscrire | Disclaimer

   EN    FR    IT 

 









Légende :    VFR   VFR Marginal   IFR   IFR Intensif   IFR Très Intensif
Visi : 
Plafond : 
>= 8 km
>= 3000ft
5 à 8 km
1000 à 3000 ft
1500m à 5 km
500 à 1000 ft
800 à 1500m
200 à 500 ft
< 800m
< 200 ft
Symboles :   Orages  Brouillard  Fortes neiges  Fortes précipitations  Vent > 20 kt







- Altitude de l'aérodrome : 85 ft


KMIV - Millville Municipal

DERNIER METAR :
  • 201554Z AUTO 12005KT 10SM BKN070 31/20 A3009 RMK AO2 SLP188 T03110200 $

TAF KMIV
Valide du 20 à 12h jusqu'au 21 à 12h UTC


201123Z 2012/2112 00000KT P6SM BKN250
FM201300 VRB03KT P6SM SCT070
FM201800 14005KT P6SM BKN060
PROB30 2021/2024 4SM TSRA OVC025CB
FM210000 VRB02KT P6SM BKN060
FM210400 00000KT 5SM BR BKN050
FM210800 00000KT 2SM -SHRA BR BKN007
FM211000 00000KT 2SM BR BKN007
Pas de NOTAMs connus pour ce terrain.



MET'MAP, la Météo Aéronautique d'un coup d'oeil ! - Copyright ORBIFLY Décembre 2007 - Disclaimer

ORBIFLY MET'MAP TEAM :

Programmation & Développement : Alexandra Zaïnal
Conception & Développement : Baudouin d'Aumeries
Co-Programmation & Développement : Marc-Olivier Méhu
Soutien technique & logistique : Manuel Goepfert

Contact : metmap@orbifly.com




SOURCES & CREDITS :

   NOAA       Earth
Advisory